Bookmark and Share
Track history (hours):
 

Theologos P .

Last reported at 2014-Apr-16 08:19 UTC. Time now 2014-Apr-16 13:35 UTC.
Position N 37°55' E 024°26'.

Length 118 m; draft 4.5 m.

Type: Passenger vessel. MMSI: 240521000.

NotesDate/timePositionNaut miles runAvg speedWind from/ knotsBaromVisibWave heightAir tempDewpointWater temp
2014-Apr-16 08:19N 37°55' E 024°26'2313.2
2014-Apr-16 06:33N 37°43' E 024°51'1818.0
2014-Apr-16 05:33N 37°32' E 025°10'9 9.1
2014-Apr-16 04:33N 37°28' E 025°20'0 0.0
2014-Apr-16 03:33N 37°28' E 025°20'0 0.0
2014-Apr-16 02:33N 37°28' E 025°20'0 0.0
2014-Apr-16 01:33N 37°28' E 025°20'0 0.0
2014-Apr-16 00:33N 37°28' E 025°20'0 0.0
2014-Apr-15 23:33N 37°28' E 025°20'0 0.0
2014-Apr-15 22:32N 37°28' E 025°20'0 0.0
2014-Apr-15 21:33N 37°28' E 025°20'0 0.0
2014-Apr-15 20:31N 37°28' E 025°20'4 3.8
2014-Apr-15 19:33N 37°29' E 025°15'1010.5
2014-Apr-15 18:33N 37°34' E 025°04'2613.2
2014-Apr-15 16:33N 37°52' E 024°39'1818.1
2014-Apr-15 15:33N 37°57' E 024°17'1 0.1
2014-Apr-15 07:34N 37°57' E 024°16'5814.6
2014-Apr-15 03:34N 37°28' E 025°20'0 0.0
2014-Apr-15 02:34N 37°28' E 025°20'0 0.0
2014-Apr-15 01:33N 37°28' E 025°20'0 0.0
2014-Apr-15 00:34N 37°28' E 025°20'0 0.0
2014-Apr-14 23:33N 37°28' E 025°20'0 0.0
2014-Apr-14 22:34N 37°28' E 025°20'0 0.0
2014-Apr-14 21:34N 37°28' E 025°20'0 0.0
2014-Apr-14 20:34N 37°28' E 025°20'0 0.0
2014-Apr-14 19:33N 37°28' E 025°20'4 4.3
2014-Apr-14 18:34N 37°29' E 025°15'1010.5
2014-Apr-14 17:34N 37°35' E 025°03'2713.1
2014-Apr-14 15:30N 37°52' E 024°38'1717.6
2014-Apr-14 14:32N 37°57' E 024°17'28 3.2
2014-Apr-14 05:32N 37°45' E 024°49'29 4.2
2014-Apr-13 22:33N 37°28' E 025°20'0 0.0
2014-Apr-13 21:33N 37°28' E 025°20'0 0.0
2014-Apr-13 20:33N 37°28' E 025°20'0 0.1
2014-Apr-13 19:32N 37°28' E 025°20'1312.7
2014-Apr-13 18:33N 37°33' E 025°05'1918.4
2014-Apr-13 17:32N 37°46' E 024°49'1110.6
2014-Apr-13 16:29N 37°52' E 024°37'8 1.9
2014-Apr-13 12:32N 37°54' E 024°28'2713.7
2014-Apr-13 10:34N 37°39' E 024°56'1312.7
2014-Apr-13 09:33N 37°32' E 025°09'9 9.1
2014-Apr-13 08:33N 37°28' E 025°20'0 0.0
2014-Apr-13 07:33N 37°28' E 025°20'0 0.0
2014-Apr-13 06:33N 37°28' E 025°20'0 0.0
2014-Apr-13 05:33N 37°28' E 025°20'0 0.0
2014-Apr-13 04:32N 37°28' E 025°20'0 0.0
2014-Apr-13 03:33N 37°28' E 025°20'0 0.0
2014-Apr-13 02:33N 37°28' E 025°20'0 0.0
2014-Apr-13 01:33N 37°28' E 025°20'0 0.0
2014-Apr-13 00:33N 37°28' E 025°20'0 0.0
2014-Apr-12 23:33N 37°28' E 025°20'0 0.0
2014-Apr-12 22:33N 37°28' E 025°20'0 0.0
2014-Apr-12 21:33N 37°28' E 025°20'0 0.0
2014-Apr-12 20:33N 37°28' E 025°20'0 0.0
2014-Apr-12 19:33N 37°28' E 025°20'1010.2
2014-Apr-12 18:33N 37°32' E 025°08'1818.0
2014-Apr-12 17:33N 37°44' E 024°51'1110.7
2014-Apr-12 16:30N 37°52' E 024°40'8 1.9
2014-Apr-12 12:23N 37°54' E 024°31'3013.9
2014-Apr-12 10:15N 37°36' E 025°01'912.1
2014-Apr-12 09:33N 37°31' E 025°10'9 8.5
2014-Apr-12 08:33N 37°28' E 025°20'0 0.0
2014-Apr-12 07:33N 37°28' E 025°20'0 0.0
2014-Apr-12 06:33N 37°28' E 025°20'0 0.0
2014-Apr-12 05:33N 37°28' E 025°20'0 0.0
2014-Apr-12 04:33N 37°28' E 025°20'0 0.0
2014-Apr-12 03:32N 37°28' E 025°20'0 0.0
2014-Apr-12 02:33N 37°28' E 025°20'0 0.0
2014-Apr-12 01:33N 37°28' E 025°20'0 0.0
2014-Apr-12 00:32N 37°28' E 025°20'0 0.0
2014-Apr-11 23:33N 37°28' E 025°20'0 0.0
2014-Apr-11 22:33N 37°28' E 025°20'0 0.0
2014-Apr-11 21:33N 37°28' E 025°20'0 0.0
2014-Apr-11 20:33N 37°28' E 025°20'0 0.1
2014-Apr-11 19:33N 37°28' E 025°19'1110.7
2014-Apr-11 18:33N 37°32' E 025°07'3414.2
2014-Apr-11 16:09N 37°53' E 024°33'6 0.7
2014-Apr-11 08:12N 37°55' E 024°26'2313.5
2014-Apr-11 06:31N 37°44' E 024°51'1818.6
2014-Apr-11 05:33N 37°32' E 025°08'1110.5
2014-Apr-11 04:33N 37°28' E 025°20'0 0.0
2014-Apr-11 03:33N 37°28' E 025°20'0 0.0
2014-Apr-11 02:33N 37°28' E 025°20'0 0.0
2014-Apr-11 01:33N 37°28' E 025°20'0 0.0
2014-Apr-11 00:33N 37°28' E 025°20'0 0.0
2014-Apr-10 23:33N 37°28' E 025°20'0 0.0
2014-Apr-10 22:32N 37°28' E 025°20'0 0.0
2014-Apr-10 21:33N 37°28' E 025°20'0 0.0
2014-Apr-10 20:33N 37°28' E 025°20'0 0.2
2014-Apr-10 19:34N 37°28' E 025°19'1211.5
2014-Apr-10 18:33N 37°33' E 025°06'2913.8
2014-Apr-10 16:28N 37°52' E 024°39'17 2.1
2014-Apr-10 08:33N 37°56' E 024°18'2814.0
2014-Apr-10 06:33N 37°45' E 024°50'1818.3
2014-Apr-10 05:33N 37°32' E 025°08'1110.6
2014-Apr-10 04:33N 37°28' E 025°20'0 0.0
2014-Apr-10 03:33N 37°28' E 025°20'0 0.0
2014-Apr-10 02:33N 37°28' E 025°20'0 0.0
2014-Apr-10 01:33N 37°28' E 025°20'0 0.0
2014-Apr-10 00:33N 37°28' E 025°20'0 0.0
2014-Apr-09 23:33N 37°28' E 025°20'0 0.0
2014-Apr-09 22:32N 37°28' E 025°20'0 0.0
2014-Apr-09 21:33N 37°28' E 025°20'0 0.0
2014-Apr-09 20:32N 37°28' E 025°20'0 0.0
2014-Apr-09 19:33N 37°28' E 025°20'0 0.0
2014-Apr-09 18:33N 37°28' E 025°20'0 0.0
2014-Apr-09 17:33N 37°28' E 025°20'0 0.0
2014-Apr-09 16:33N 37°28' E 025°20'0 0.0
2014-Apr-09 15:32N 37°28' E 025°20'0 0.0
2014-Apr-09 14:32N 37°28' E 025°20'0 0.0
2014-Apr-09 13:33N 37°28' E 025°20'0 0.0
2014-Apr-09 12:32N 37°28' E 025°20'0 0.0
2014-Apr-09 11:33N 37°28' E 025°20'0 0.0
2014-Apr-09 10:33N 37°28' E 025°20'0 0.0
2014-Apr-09 09:33N 37°28' E 025°20'0 0.0
2014-Apr-09 08:33N 37°28' E 025°20'0 0.0
2014-Apr-09 07:33N 37°28' E 025°20'0 0.0
2014-Apr-09 06:33N 37°28' E 025°20'0 0.0
2014-Apr-09 05:33N 37°28' E 025°20'0 0.0
2014-Apr-09 04:33N 37°28' E 025°20'0 0.0
2014-Apr-09 03:33N 37°28' E 025°20'0 0.0
2014-Apr-09 02:33N 37°28' E 025°20'0 0.0
2014-Apr-09 01:33N 37°28' E 025°20'0 0.0
2014-Apr-09 00:33N 37°28' E 025°20'0 0.0
2014-Apr-08 23:33N 37°28' E 025°20'0 0.0
2014-Apr-08 22:33N 37°28' E 025°20'0 0.0
2014-Apr-08 21:32N 37°28' E 025°20'0 0.0
2014-Apr-08 20:33N 37°28' E 025°20'0 0.4
2014-Apr-08 19:33N 37°28' E 025°19'1110.9
2014-Apr-08 18:33N 37°33' E 025°07'3414.2
2014-Apr-08 16:12N 37°53' E 024°33'1317.7
2014-Apr-08 15:28N 37°57' E 024°18'6 0.9
2014-Apr-08 08:15N 37°55' E 024°25'2513.2
2014-Apr-08 06:23N 37°43' E 024°53'1518.4
2014-Apr-08 05:33N 37°33' E 025°07'1111.2
2014-Apr-08 04:33N 37°28' E 025°20'0 0.0
2014-Apr-08 03:33N 37°28' E 025°20'0 0.0
2014-Apr-08 02:33N 37°28' E 025°20'0 0.0
2014-Apr-08 01:33N 37°28' E 025°20'0 0.0
2014-Apr-08 00:33N 37°28' E 025°20'0 0.0
2014-Apr-07 23:33N 37°28' E 025°20'0 0.0
2014-Apr-07 22:33N 37°28' E 025°20'0 0.0
2014-Apr-07 21:33N 37°28' E 025°20'0 0.0
2014-Apr-07 20:33N 37°28' E 025°20'4 3.9
2014-Apr-07 19:33N 37°29' E 025°15'3812.7
2014-Apr-07 16:32N 37°53' E 024°36'9 1.1
2014-Apr-07 08:09N 37°55' E 024°25'2113.4
2014-Apr-07 06:33N 37°46' E 024°49'1919.2
2014-Apr-07 05:33N 37°33' E 025°07'1111.3
2014-Apr-07 04:33N 37°28' E 025°20'0 0.0
2014-Apr-07 03:33N 37°28' E 025°20'0 0.0
2014-Apr-07 02:33N 37°28' E 025°20'0 0.0
2014-Apr-07 01:33N 37°28' E 025°20'0 0.0
2014-Apr-07 00:34N 37°28' E 025°20'0 0.0
2014-Apr-06 23:34N 37°28' E 025°20'0 0.0
2014-Apr-06 22:33N 37°28' E 025°20'0 0.0
2014-Apr-06 21:34N 37°28' E 025°20'0 0.0
2014-Apr-06 20:34N 37°28' E 025°20'0 0.0
2014-Apr-06 19:34N 37°28' E 025°20'9 9.2
2014-Apr-06 18:34N 37°32' E 025°09'1616.0
2014-Apr-06 17:33N 37°42' E 024°53'1511.8
2014-Apr-06 16:18N 37°52' E 024°39'1818.2
2014-Apr-06 15:19N 37°57' E 024°17'8 3.0
2014-Apr-06 12:33N 37°54' E 024°27'1712.2
2014-Apr-06 11:08N 37°47' E 024°47'1119.4
2014-Apr-06 10:33N 37°39' E 024°57'1212.2
2014-Apr-06 09:33N 37°32' E 025°09'9 8.8
2014-Apr-06 08:32N 37°28' E 025°20'  

Dump ship's entire track history

sailing weather and tide predictions

Theologos P . — SZNB — position and weather